Time;durP1;ratioP1;P1;durP2;ratioP2;P2;SDS_P1;SDS_P2;PMS_P1;PMS_P2;Temp;Humidity;BMP_temperature;BMP_pressure;BME280_temperature;BME280_humidity;BME280_pressure;Samples;Min_cycle;Max_cycle;Signal;HPM_P1;HPM_P2
2022/05/15 00:05:29;;;;;;;;;;;;;;;14.81;62.56;100571.19;4781178;29;20039;-75
2022/05/15 00:07:56;;;;;;;3.83;1.92;;;;;;;14.76;62.73;100557.47;4769452;30;19917;-71
2022/05/15 00:10:22;;;;;;;5.43;2.40;;;;;;;14.81;62.71;100549.16;4779937;29;20036;-74
2022/05/15 00:12:48;;;;;;;3.20;1.70;;;;;;;14.81;62.82;100553.84;4837370;29;20043;-74
2022/05/15 00:15:14;;;;;;;4.82;1.50;;;;;;;14.75;62.50;100542.06;4836015;29;20358;-74
2022/05/15 00:17:42;;;;;;;3.55;1.92;;;;;;;14.55;63.17;100509.22;4852048;29;20022;-74
2022/05/15 00:20:29;;;;;;;5.80;1.73;;;;;;;14.51;63.88;100511.72;4847254;29;20857;-74
2022/05/15 00:22:55;;;;;;;4.65;2.17;;;;;;;14.27;64.54;100485.00;4856292;29;20048;-73
2022/05/15 00:25:23;;;;;;;4.13;1.52;;;;;;;14.37;63.87;100517.09;4849063;29;20022;-74
2022/05/15 00:27:49;;;;;;;4.57;1.20;;;;;;;14.36;63.84;100515.44;4852251;29;20022;-74
2022/05/15 00:30:16;;;;;;;1.83;1.30;;;;;;;14.43;64.78;100524.19;4837041;29;20034;-73
2022/05/15 00:32:42;;;;;;;3.85;1.48;;;;;;;14.46;64.29;100520.03;4858952;29;20014;-74
2022/05/15 00:35:08;;;;;;;6.18;2.08;;;;;;;14.35;64.59;100502.78;4848874;29;20040;-73
2022/05/15 00:37:33;;;;;;;3.70;1.63;;;;;;;14.38;64.68;100498.66;4841417;29;20495;-75
2022/05/15 00:39:59;;;;;;;6.05;1.88;;;;;;;14.35;65.06;100497.28;4827137;29;20033;-74
2022/05/15 00:42:25;;;;;;;4.75;1.88;;;;;;;14.36;64.79;100498.94;4836066;29;20061;-74
2022/05/15 00:44:52;;;;;;;5.70;1.75;;;;;;;14.44;64.68;100512.06;4840532;29;20110;-74
2022/05/15 00:47:18;;;;;;;6.20;2.00;;;;;;;14.44;64.75;100509.31;4851891;29;20082;-75
2022/05/15 00:49:45;;;;;;;5.00;2.17;;;;;;;14.48;65.20;100510.41;4844651;29;20124;-75
2022/05/15 00:52:14;;;;;;;4.22;2.30;;;;;;;14.47;65.40;100513.41;4847324;29;20034;-74
2022/05/15 00:55:12;;;;;;;3.25;1.77;;;;;;;14.38;65.22;100504.16;4842143;29;20437;-76
2022/05/15 00:57:49;;;;;;;2.47;1.58;;;;;;;14.44;64.65;100523.09;4847621;29;20033;-74
2022/05/15 01:00:18;;;;;;;5.93;1.98;;;;;;;14.53;65.44;100544.44;4843613;29;20123;-73
2022/05/15 01:02:54;;;;;;;3.42;1.55;;;;;;;14.39;65.33;100531.38;4859763;29;20029;-74
2022/05/15 01:05:19;;;;;;;3.42;1.60;;;;;;;14.43;65.08;100548.94;4846177;29;20036;-74
2022/05/15 01:07:45;;;;;;;5.90;1.80;;;;;;;14.52;64.79;100551.91;4858747;29;20034;-74
2022/05/15 01:10:11;;;;;;;2.10;1.40;;;;;;;14.53;65.23;100530.69;4859419;29;20057;-74
2022/05/15 01:12:40;;;;;;;4.82;1.50;;;;;;;14.48;65.43;100491.13;4845960;29;20099;-74
2022/05/15 01:15:08;;;;;;;4.13;1.90;;;;;;;14.53;65.84;100509.53;4862946;29;20108;-74
2022/05/15 01:17:34;;;;;;;5.53;2.60;;;;;;;14.54;66.61;100504.81;4866774;29;20037;-74
2022/05/15 01:20:03;;;;;;;4.03;2.30;;;;;;;14.46;67.00;100496.09;4840575;29;20036;-74
2022/05/15 01:22:30;;;;;;;6.82;2.58;;;;;;;14.34;68.38;100481.91;4839943;29;20042;-72
2022/05/15 01:24:56;;;;;;;4.78;2.17;;;;;;;14.28;68.87;100494.06;4829493;29;20129;-72
2022/05/15 01:27:21;;;;;;;2.80;1.95;;;;;;;14.21;68.69;100512.84;4836405;29;20037;-75
2022/05/15 01:29:48;;;;;;;3.55;1.95;;;;;;;14.13;68.88;100534.34;4830560;29;20030;-74
2022/05/15 01:32:14;;;;;;;6.13;2.47;;;;;;;14.06;69.01;100522.88;4848053;29;20112;-73
2022/05/15 01:34:42;;;;;;;2.53;1.60;;;;;;;14.00;69.77;100518.50;4834616;29;20549;-75
2022/05/15 01:37:09;;;;;;;3.50;1.80;;;;;;;13.97;69.77;100519.06;4849548;29;20033;-72
2022/05/15 01:39:37;;;;;;;4.30;1.85;;;;;;;13.94;69.99;100522.38;4846599;29;20473;-73
2022/05/15 01:42:03;;;;;;;3.15;1.98;;;;;;;13.91;69.67;100521.03;4845354;29;20034;-74
2022/05/15 01:44:31;;;;;;;4.75;2.05;;;;;;;13.86;70.13;100512.84;4851895;29;20472;-74
2022/05/15 01:50:32;;;;;;;2.38;1.48;;;;;;;13.73;69.54;100503.28;4775251;30;20039;-74
2022/05/15 01:53:07;;;;;;;3.22;1.58;;;;;;;13.66;69.70;100483.56;4842069;29;20397;-74
2022/05/15 01:55:36;;;;;;;2.58;1.40;;;;;;;13.65;70.24;100495.66;4841407;29;20048;-75
2022/05/15 01:58:04;;;;;;;3.00;1.45;;;;;;;13.77;70.37;100515.38;4846436;29;20054;-75
2022/05/15 02:00:29;;;;;;;3.63;1.40;;;;;;;13.84;70.62;100511.47;4842491;29;20029;-74
2022/05/15 02:02:55;;;;;;;2.33;1.45;;;;;;;13.82;70.31;100505.44;4835685;29;20041;-74
2022/05/15 02:05:22;;;;;;;3.67;1.65;;;;;;;13.88;70.77;100504.31;4846725;29;20393;-74
2022/05/15 02:07:50;;;;;;;7.28;2.45;;;;;;;13.88;71.05;100505.09;4840616;29;20037;-73
2022/05/15 02:10:17;;;;;;;3.53;2.03;;;;;;;13.86;71.69;100507.34;4834184;29;20030;-74
2022/05/15 02:12:43;;;;;;;2.85;1.75;;;;;;;13.71;71.49;100499.19;4828992;29;20026;-73
2022/05/15 02:15:10;;;;;;;3.65;1.60;;;;;;;13.81;71.91;100528.53;4845352;29;20540;-74
2022/05/15 02:17:35;;;;;;;3.85;1.70;;;;;;;13.74;71.21;100526.09;4859899;29;20391;-74
2022/05/15 02:20:02;;;;;;;3.95;1.73;;;;;;;13.75;70.94;100544.22;4837869;29;20113;-73
2022/05/15 02:22:27;;;;;;;4.63;2.38;;;;;;;13.60;71.88;100564.38;4848170;29;20052;-74
2022/05/15 02:24:53;;;;;;;8.32;3.10;;;;;;;13.63;72.82;100598.72;4830930;29;20116;-73
2022/05/15 02:27:18;;;;;;;8.15;2.47;;;;;;;13.47;73.35;100593.28;4831412;29;20026;-74
2022/05/15 02:29:44;;;;;;;4.57;2.33;;;;;;;13.51;73.25;100596.31;4834954;29;20033;-75
2022/05/15 02:32:10;;;;;;;2.90;1.73;;;;;;;13.47;72.95;100578.75;4859053;29;20098;-74
2022/05/15 02:34:35;;;;;;;3.97;1.65;;;;;;;13.50;73.05;100564.44;4826167;29;20029;-74
2022/05/15 02:37:00;;;;;;;3.35;1.48;;;;;;;13.55;73.28;100517.69;4830362;29;20045;-74
2022/05/15 02:39:26;;;;;;;5.55;2.05;;;;;;;13.49;73.39;100477.63;4846682;29;20041;-74
2022/05/15 02:41:52;;;;;;;4.10;2.10;;;;;;;13.51;73.70;100489.16;4836166;29;20476;-75
2022/05/15 02:44:17;;;;;;;4.55;1.80;;;;;;;13.46;73.66;100480.94;4821697;29;20034;-74
2022/05/15 02:46:42;;;;;;;2.13;1.27;;;;;;;13.33;73.36;100458.47;4842563;29;20026;-74
2022/05/15 02:51:52;;;;;;;4.93;1.50;;;;;;;13.39;73.70;100443.63;4854040;29;20129;-75
2022/05/15 02:54:18;;;;;;;7.28;2.20;;;;;;;13.32;74.41;100426.63;4839984;29;20714;-75
2022/05/15 02:56:46;;;;;;;3.80;1.80;;;;;;;13.25;73.97;100409.63;4816237;29;20141;-76
2022/05/15 02:59:11;;;;;;;3.58;1.70;;;;;;;13.30;73.91;100417.81;4823738;29;20044;-75
2022/05/15 03:01:37;;;;;;;3.70;1.77;;;;;;;13.21;73.84;100420.34;4823064;29;20030;-75
2022/05/15 03:04:03;;;;;;;2.20;1.50;;;;;;;13.15;73.01;100426.16;4857794;29;20047;-75
2022/05/15 03:06:29;;;;;;;2.42;1.35;;;;;;;13.05;72.88;100427.88;4830897;29;20063;-76
2022/05/15 03:08:54;;;;;;;2.55;1.38;;;;;;;13.00;73.13;100447.09;4828004;29;20508;-76
2022/05/15 03:11:23;;;;;;;3.00;1.20;;;;;;;12.84;72.65;100420.84;4856303;29;20025;-74
2022/05/15 03:13:48;;;;;;;4.32;1.80;;;;;;;12.84;73.14;100409.88;4845999;29;20053;-74
2022/05/15 03:16:15;;;;;;;2.78;1.30;;;;;;;12.96;72.93;100424.06;4855558;29;20090;-74
2022/05/15 03:18:50;;;;;;;1.73;1.27;;;;;;;12.91;73.10;100413.13;4825829;29;20467;-75
2022/05/15 03:21:28;;;;;;;5.18;1.83;;;;;;;12.82;73.62;100406.56;4854673;29;20034;-75
2022/05/15 03:24:02;;;;;;;7.05;1.42;;;;;;;12.73;74.10;100398.94;4831600;29;20477;-74
2022/05/15 03:26:31;;;;;;;1.98;1.25;;;;;;;12.63;74.22;100393.50;4859076;29;20056;-74
2022/05/15 03:28:56;;;;;;;3.38;1.65;;;;;;;12.62;73.82;100400.06;4828173;29;20041;-74
2022/05/15 03:31:23;;;;;;;3.10;1.40;;;;;;;12.54;74.34;100401.47;4842363;29;20038;-74
2022/05/15 03:33:49;;;;;;;4.32;1.42;;;;;;;12.59;74.52;100417.09;4836123;29;20685;-74
2022/05/15 03:36:16;;;;;;;5.30;1.70;;;;;;;12.60;74.05;100420.66;4830605;29;20034;-75
2022/05/15 03:38:44;;;;;;;2.15;1.23;;;;;;;12.46;74.09;100398.50;4846057;29;20002;-75
2022/05/15 03:41:10;;;;;;;6.95;1.58;;;;;;;12.54;74.47;100422.59;4845420;29;20100;-76
2022/05/15 03:43:40;;;;;;;7.32;1.52;;;;;;;12.46;74.31;100412.19;4851251;29;20101;-74
2022/05/15 03:49:42;;;;;;;4.20;1.52;;;;;;;12.57;74.59;100411.03;4840657;29;20045;-73
2022/05/15 03:52:08;;;;;;;4.50;1.60;;;;;;;12.57;74.82;100394.59;4857612;29;20121;-74
2022/05/15 03:54:48;;;;;;;3.22;1.60;;;;;;;12.43;74.86;100345.00;4851911;29;20109;-74
2022/05/15 03:58:39;;;;;;;3.63;1.70;;;;;;;12.37;74.83;100352.44;4833085;29;20350;-73
2022/05/15 04:00:49;;;;;;;3.05;1.42;;;;;;;12.28;74.89;100342.31;4771376;30;20034;-74
2022/05/15 04:03:49;;;;;;;2.03;1.05;;;;;;;12.42;75.06;100369.97;4840070;29;20033;-73
2022/05/15 04:06:14;;;;;;;4.90;1.33;;;;;;;12.37;75.14;100390.81;4839180;29;20040;-72
2022/05/15 04:08:40;;;;;;;2.22;1.27;;;;;;;12.45;74.38;100413.28;4837399;29;20401;-73
2022/05/15 04:11:05;;;;;;;3.90;1.00;;;;;;;12.46;74.65;100409.47;4866259;29;20040;-74
2022/05/15 04:13:31;;;;;;;2.42;1.23;;;;;;;12.50;75.27;100405.03;4828203;29;20085;-73
2022/05/15 04:15:56;;;;;;;9.25;1.98;;;;;;;12.52;75.51;100392.69;4859839;29;20054;-74
2022/05/15 04:18:24;;;;;;;4.07;1.63;;;;;;;12.39;75.45;100355.72;4835677;29;20056;-76
2022/05/15 04:20:51;;;;;;;2.83;1.65;;;;;;;12.47;75.62;100348.00;4826444;29;20045;-76
2022/05/15 04:23:17;;;;;;;2.35;1.50;;;;;;;12.54;75.93;100351.28;4842774;29;20038;-74
2022/05/15 04:25:42;;;;;;;2.78;1.30;;;;;;;12.56;74.95;100360.06;4821131;29;20037;-74
2022/05/15 04:28:08;;;;;;;3.55;1.35;;;;;;;12.45;75.38;100347.47;4864903;29;20102;-72
2022/05/15 04:30:34;;;;;;;3.90;1.45;;;;;;;12.46;75.22;100371.88;4817505;29;20040;-73
2022/05/15 04:33:00;;;;;;;3.28;1.10;;;;;;;12.45;75.72;100391.34;4825418;29;20033;-75
2022/05/15 04:35:26;;;;;;;1.90;1.25;;;;;;;12.45;74.99;100378.44;4834024;29;20033;-74
2022/05/15 04:37:51;;;;;;;2.17;1.15;;;;;;;12.49;75.52;100354.03;4823441;29;20097;-74
2022/05/15 04:40:18;;;;;;;2.88;1.25;;;;;;;12.57;75.44;100353.44;4825502;29;20042;-76
2022/05/15 04:42:44;;;;;;;7.13;1.80;;;;;;;12.68;75.62;100368.75;4842214;29;20025;-75
2022/05/15 04:45:10;;;;;;;4.75;1.63;;;;;;;12.69;75.98;100364.13;4846689;29;20097;-74
2022/05/15 04:47:35;;;;;;;3.00;1.83;;;;;;;12.69;75.62;100375.91;4845780;29;20033;-77
2022/05/15 04:50:01;;;;;;;2.25;1.50;;;;;;;12.66;75.69;100392.94;4854278;29;20628;-78
2022/05/15 04:52:26;;;;;;;2.17;1.33;;;;;;;12.71;76.16;100400.31;4850999;29;20034;-79
2022/05/15 04:54:52;;;;;;;3.85;1.65;;;;;;;12.71;75.99;100403.88;4847580;29;20030;-77
2022/05/15 04:57:17;;;;;;;4.13;1.60;;;;;;;12.65;76.55;100417.91;4831741;29;20556;-77
2022/05/15 04:59:43;;;;;;;4.15;1.55;;;;;;;12.64;76.40;100408.84;4831823;29;20033;-76
2022/05/15 05:02:08;;;;;;;4.40;1.58;;;;;;;12.61;76.19;100381.97;4832210;29;20120;-75
2022/05/15 05:04:34;;;;;;;2.45;1.50;;;;;;;12.68;76.53;100374.25;4817634;29;20595;-77
2022/05/15 05:07:00;;;;;;;4.05;1.70;;;;;;;12.69;76.26;100380.56;4810671;29;20136;-75
2022/05/15 05:09:26;;;;;;;3.55;1.50;;;;;;;12.66;76.64;100365.50;4831576;29;20571;-75
2022/05/15 05:11:52;;;;;;;3.35;1.60;;;;;;;12.82;76.51;100359.91;4801550;29;20125;-74
2022/05/15 05:14:19;;;;;;;5.28;1.92;;;;;;;12.84;76.66;100357.72;4827501;29;20038;-74
2022/05/15 05:16:45;;;;;;;4.78;2.03;;;;;;;12.83;76.07;100361.56;4819839;29;20029;-75
2022/05/15 05:19:11;;;;;;;3.08;1.17;;;;;;;12.78;76.32;100350.63;4816178;29;20128;-74
2022/05/15 05:21:36;;;;;;;1.58;1.23;;;;;;;12.78;76.23;100361.59;4845839;29;20065;-76
2022/05/15 05:24:02;;;;;;;3.25;1.33;;;;;;;12.78;76.29;100347.88;4831308;29;20046;-76
2022/05/15 05:26:28;;;;;;;2.22;1.58;;;;;;;12.83;76.48;100345.09;4827088;29;20132;-76
2022/05/15 05:28:54;;;;;;;2.22;1.30;;;;;;;12.86;76.26;100330.81;4859391;29;20034;-75
2022/05/15 05:31:45;;;;;;;;;;;;;;;;;;;;;
2022/05/15 05:34:11;;;;;;;3.65;1.30;;;;;;;12.89;76.12;100322.00;4853898;29;20112;-75
2022/05/15 05:36:36;;;;;;;4.95;1.70;;;;;;;13.02;75.91;100335.09;4849394;29;20049;-76
2022/05/15 05:39:20;;;;;;;;;;;;;;;;;;;;;
2022/05/15 05:41:46;;;;;;;5.73;1.67;;;;;;;13.09;75.68;100346.56;4848124;29;20368;-77
2022/05/15 05:45:07;;;;;;;2.55;1.33;;;;;;;13.10;75.66;100364.69;4847957;29;20104;-77
2022/05/15 05:47:33;;;;;;;2.58;1.20;;;;;;;12.82;76.31;100302.28;4823033;29;20037;-77
2022/05/15 05:49:59;;;;;;;3.63;1.58;;;;;;;12.96;76.06;100286.81;4864354;29;20044;-78
2022/05/15 05:52:25;;;;;;;5.97;1.45;;;;;;;13.16;76.27;100279.56;4845285;29;20022;-76
2022/05/15 05:55:40;;;;;;;;;;;;;;;;;;;;;
2022/05/15 05:58:05;;;;;;;4.10;1.52;;;;;;;13.32;75.75;100294.78;4859192;29;20101;-81
2022/05/15 06:00:37;;;;;;;5.45;1.92;;;;;;;13.03;75.97;100248.91;4838226;29;20117;-75
2022/05/15 06:05:48;;;;;;;2.75;1.60;;;;;;;13.54;75.92;100283.38;4853099;29;20468;-76
2022/05/15 06:08:14;;;;;;;4.32;1.77;;;;;;;13.67;75.57;100276.38;4807273;29;20029;-76
2022/05/15 06:14:24;;;;;;;5.35;2.40;;;;;;;13.95;74.81;100258.19;4831505;29;20080;-77
2022/05/15 06:20:09;;;;;;;7.00;2.25;;;;;;;14.55;74.00;100256.06;4863090;29;20158;-78
2022/05/15 06:22:37;;;;;;;3.55;1.80;;;;;;;14.68;73.16;100241.59;4840313;29;20049;-77
2022/05/15 06:25:34;;;;;;;6.78;2.20;;;;;;;15.01;72.42;100231.44;4859249;29;20033;-77
2022/05/15 06:28:10;;;;;;;4.30;2.30;;;;;;;15.06;72.41;100208.50;4852632;29;20041;-75
2022/05/15 06:30:37;;;;;;;3.53;1.90;;;;;;;15.30;72.08;100229.59;4857672;29;20473;-75
2022/05/15 06:33:03;;;;;;;4.05;1.98;;;;;;;15.54;72.00;100235.75;4860349;29;20022;-75
2022/05/15 06:35:29;;;;;;;3.15;1.60;;;;;;;15.76;71.43;100242.53;4847360;29;20029;-74
2022/05/15 06:37:55;;;;;;;3.53;1.58;;;;;;;15.84;71.23;100239.09;4829557;29;20045;-75
2022/05/15 06:40:23;;;;;;;5.32;2.22;;;;;;;15.94;70.71;100237.25;4804444;29;20056;-76
2022/05/15 06:42:48;;;;;;;4.38;1.50;;;;;;;15.88;70.53;100223.56;4837268;29;20034;-77
2022/05/15 06:45:16;;;;;;;5.45;2.40;;;;;;;16.03;70.56;100240.91;4849037;29;20033;-76
2022/05/15 06:47:47;;;;;;;4.90;2.42;;;;;;;16.09;70.12;100253.50;4832855;29;20026;-76
2022/05/15 06:50:23;;;;;;;11.40;2.92;;;;;;;15.94;69.85;100237.25;4852013;29;20112;-76
2022/05/15 06:53:06;;;;;;;;;;;;;;;;;;;;;
2022/05/15 06:55:34;;;;;;;6.03;2.42;;;;;;;16.18;69.75;100253.59;4851448;29;20029;-78
2022/05/15 06:58:07;;;;;;;7.72;2.47;;;;;;;16.26;69.34;100224.47;4859206;29;20162;-78
2022/05/15 07:00:51;;;;;;;4.78;2.60;;;;;;;16.44;68.98;100211.63;4838690;29;20058;-76
2022/05/15 07:03:24;;;;;;;3.55;1.90;;;;;;;16.76;67.88;100224.41;4852926;29;20098;-77
2022/05/15 07:05:50;;;;;;;3.30;2.33;;;;;;;16.93;67.32;100215.47;4844061;29;20067;-76
2022/05/15 07:08:16;;;;;;;6.93;2.17;;;;;;;17.21;66.97;100235.47;4855618;29;20033;-76
2022/05/15 07:10:42;;;;;;;4.20;1.83;;;;;;;17.31;67.03;100236.38;4830528;29;20097;-75
2022/05/15 07:13:10;;;;;;;6.20;2.15;;;;;;;17.54;66.57;100232.44;4845195;29;20038;-74
2022/05/15 07:15:37;;;;;;;5.05;2.20;;;;;;;17.66;66.37;100208.91;4854167;29;20061;-75
2022/05/15 07:18:04;;;;;;;3.95;2.33;;;;;;;17.91;65.25;100238.63;4847560;29;20053;-75
2022/05/15 07:20:32;;;;;;;6.75;2.67;;;;;;;18.03;64.35;100239.97;4844404;29;20034;-74
2022/05/15 07:22:57;;;;;;;6.03;2.58;;;;;;;17.95;64.25;100236.84;4828128;29;20083;-75
2022/05/15 07:25:23;;;;;;;3.75;1.92;;;;;;;17.95;64.25;100236.84;4832565;29;20033;-75
2022/05/15 07:27:49;;;;;;;7.38;3.38;;;;;;;18.02;63.97;100235.56;4843637;29;20061;-76
2022/05/15 07:30:15;;;;;;;12.23;3.00;;;;;;;17.95;63.40;100247.13;4854226;29;20044;-75
2022/05/15 07:32:41;;;;;;;7.60;2.95;;;;;;;17.83;63.28;100239.41;4840289;29;20022;-76
2022/05/15 07:35:15;;;;;;;11.38;2.70;;;;;;;17.76;63.28;100233.50;4823936;29;20370;-75
2022/05/15 07:37:40;;;;;;;5.30;2.38;;;;;;;17.87;62.98;100232.09;4820484;29;20048;-76
2022/05/15 07:40:06;;;;;;;5.38;2.47;;;;;;;17.99;62.99;100242.56;4843025;29;20065;-75
2022/05/15 07:42:31;;;;;;;5.22;2.40;;;;;;;18.11;62.59;100236.44;4848800;29;20037;-76
2022/05/15 07:45:00;;;;;;;5.93;2.60;;;;;;;18.30;61.69;100225.88;4832326;29;20045;-74
2022/05/15 07:47:25;;;;;;;7.75;2.60;;;;;;;18.59;61.01;100227.22;4818112;29;20045;-75
2022/05/15 07:49:53;;;;;;;6.80;2.65;;;;;;;19.20;59.20;100226.38;4854470;29;20033;-76
2022/05/15 07:52:23;;;;;;;6.32;2.83;;;;;;;19.31;58.53;100216.56;4836358;29;20037;-78
2022/05/15 07:54:49;;;;;;;7.50;3.03;;;;;;;19.29;57.73;100215.25;4846242;29;20030;-78
2022/05/15 07:57:18;;;;;;;8.65;3.00;;;;;;;19.30;57.84;100222.44;4844516;29;20025;-77
2022/05/15 07:59:44;;;;;;;12.38;2.97;;;;;;;19.39;57.50;100214.09;4844730;29;20037;-77
2022/05/15 08:02:44;;;;;;;13.15;2.92;;;;;;;19.44;57.46;100192.56;4838653;29;20040;-77
2022/05/15 08:08:05;;;;;;;6.20;2.83;;;;;;;18.99;57.60;100179.16;4842753;29;20124;-75
2022/05/15 08:11:09;;;;;;;6.53;3.00;;;;;;;18.85;58.03;100195.91;4833508;29;20652;-76
2022/05/15 08:13:37;;;;;;;9.32;3.15;;;;;;;18.58;58.38;100178.50;4849261;29;20026;-76
2022/05/15 08:16:08;;;;;;;8.48;2.75;;;;;;;18.56;58.89;100183.56;4853690;29;20025;-75
2022/05/15 08:24:05;;;;;;;3.25;1.77;;;;;;;18.81;57.84;100194.97;4843423;29;20080;-77
2022/05/15 08:26:31;;;;;;;7.38;2.95;;;;;;;18.88;57.97;100181.47;4840868;29;20069;-77
2022/05/15 08:35:40;;;;;;;5.03;2.00;;;;;;;19.76;56.19;100181.19;4855675;29;20040;-75
2022/05/15 08:38:09;;;;;;;7.05;2.78;;;;;;;20.23;54.04;100193.00;4841609;29;20030;-77
2022/05/15 08:40:46;;;;;;;5.10;2.30;;;;;;;20.59;53.47;100188.00;4836382;29;20084;-77
2022/05/15 08:43:24;;;;;;;3.65;1.58;;;;;;;21.17;52.89;100190.91;4881728;29;20022;-77
2022/05/15 08:46:05;;;;;;;6.97;2.45;;;;;;;21.49;51.93;100201.53;4848595;29;20040;-74
2022/05/15 08:48:37;;;;;;;6.10;2.28;;;;;;;21.56;51.35;100196.22;4850585;29;20048;-75
2022/05/15 08:51:07;;;;;;;6.88;2.42;;;;;;;21.27;50.95;100195.22;4862842;29;20033;-76
2022/05/15 08:53:35;;;;;;;4.15;2.15;;;;;;;20.85;51.98;100196.16;4855928;29;20020;-76
2022/05/15 08:56:08;;;;;;;6.10;2.42;;;;;;;20.66;52.65;100204.97;4847163;29;20025;-76
2022/05/15 08:58:43;;;;;;;4.20;2.45;;;;;;;20.39;53.07;100234.06;4872643;29;20029;-77
2022/05/15 09:01:13;;;;;;;4.50;2.08;;;;;;;19.93;53.90;100239.41;4846940;29;20041;-77
2022/05/15 09:03:39;;;;;;;6.05;2.20;;;;;;;19.42;55.54;100241.16;4840199;29;20677;-76
2022/05/15 09:06:15;;;;;;;7.60;2.38;;;;;;;19.10;56.49;100240.56;4849704;29;20075;-75
2022/05/15 09:09:24;;;;;;;7.18;2.80;;;;;;;18.52;57.97;100231.63;4853887;29;20029;-76
2022/05/15 09:11:55;;;;;;;5.20;1.70;;;;;;;17.99;58.85;100214.06;4847808;29;20037;-77
2022/05/15 09:14:31;;;;;;;2.88;1.42;;;;;;;17.72;60.10;100215.91;4850304;29;20022;-76
2022/05/15 09:17:37;;;;;;;1.73;1.33;;;;;;;17.37;60.55;100222.09;4860891;29;20030;-76
2022/05/15 09:20:17;;;;;;;8.88;3.50;;;;;;;17.13;62.81;100249.25;4849319;29;20026;-76
2022/05/15 09:22:50;;;;;;;6.60;2.65;;;;;;;16.81;63.37;100265.72;4845317;29;20125;-76
2022/05/15 09:25:20;;;;;;;3.45;1.80;;;;;;;16.58;64.80;100254.63;4856959;29;20092;-74
2022/05/15 09:28:11;;;;;;;5.68;2.13;;;;;;;16.61;65.07;100249.63;4843219;29;20010;-73
2022/05/15 09:30:38;;;;;;;3.47;1.63;;;;;;;16.71;65.91;100233.63;4829411;29;20728;-76
2022/05/15 09:33:06;;;;;;;5.35;1.88;;;;;;;17.16;65.42;100251.41;4863221;29;20029;-77
2022/05/15 09:35:38;;;;;;;2.88;1.35;;;;;;;17.45;64.46;100226.06;4849145;29;20057;-75
2022/05/15 09:43:50;;;;;;;2.92;1.60;;;;;;;18.31;63.06;100188.75;4854880;29;20052;-76
2022/05/15 09:46:18;;;;;;;7.15;1.80;;;;;;;18.46;63.08;100183.91;4838071;29;20037;-76
2022/05/15 09:49:13;;;;;;;5.20;2.58;;;;;;;18.43;62.74;100179.81;4865309;29;20025;-75
2022/05/15 09:51:48;;;;;;;3.67;1.90;;;;;;;18.22;63.00;100157.47;4847913;29;20405;-76
2022/05/15 09:54:37;;;;;;;7.13;2.28;;;;;;;18.12;63.74;100158.63;4861114;29;20034;-75
2022/05/15 09:57:23;;;;;;;6.82;2.88;;;;;;;18.06;63.12;100175.69;4847691;29;20384;-76
2022/05/15 09:59:57;;;;;;;8.20;2.70;;;;;;;18.24;62.78;100182.88;4857813;29;20053;-76
2022/05/15 10:02:27;;;;;;;4.45;2.30;;;;;;;18.52;62.07;100187.31;4845605;29;20507;-76
2022/05/15 10:04:54;;;;;;;7.10;2.17;;;;;;;18.77;61.14;100191.22;4849388;29;20029;-76
2022/05/15 10:07:36;;;;;;;6.05;2.35;;;;;;;18.98;60.50;100181.13;4837487;29;20489;-76
2022/05/15 10:10:22;;;;;;;7.07;2.58;;;;;;;19.04;59.99;100187.31;4860807;29;20065;-77
2022/05/15 10:12:56;;;;;;;7.03;2.70;;;;;;;19.03;60.05;100196.75;4843532;29;20472;-76
2022/05/15 10:15:24;;;;;;;7.28;2.15;;;;;;;19.08;59.98;100193.00;4854373;29;20041;-76
2022/05/15 10:17:54;;;;;;;7.05;2.58;;;;;;;19.05;59.52;100194.47;4842663;29;20041;-76
2022/05/15 10:20:22;;;;;;;7.70;2.47;;;;;;;19.13;59.79;100201.16;4847702;29;20108;-76
2022/05/15 10:22:53;;;;;;;11.43;2.78;;;;;;;19.03;59.90;100188.44;4862129;29;20092;-75
2022/05/15 10:25:38;;;;;;;5.55;2.15;;;;;;;18.89;59.87;100180.28;4852105;29;20067;-78
2022/05/15 10:28:09;;;;;;;7.43;2.53;;;;;;;18.83;60.20;100214.81;4852881;29;20030;-77
2022/05/15 10:30:44;;;;;;;9.50;2.30;;;;;;;18.62;60.21;100209.94;4850723;29;20026;-78
2022/05/15 10:33:18;;;;;;;8.93;2.38;;;;;;;18.45;61.42;100193.31;4846753;29;20029;-79
2022/05/15 10:36:23;;;;;;;6.75;1.90;;;;;;;18.62;61.51;100209.94;4849431;29;20029;-79
2022/05/15 10:38:58;;;;;;;4.15;1.80;;;;;;;18.75;61.26;100204.56;4798621;29;20046;-76
2022/05/15 10:41:36;;;;;;;9.27;2.08;;;;;;;18.81;61.20;100203.28;4856234;29;20042;-76
2022/05/15 10:44:34;;;;;;;3.28;1.90;;;;;;;19.00;60.93;100212.06;4861371;29;20050;-76
2022/05/15 10:47:15;;;;;;;4.25;1.73;;;;;;;19.01;60.29;100212.88;4850333;29;20069;-76
2022/05/15 10:49:58;;;;;;;5.25;1.80;;;;;;;19.08;60.55;100220.69;4842509;29;20119;-76
2022/05/15 10:52:52;;;;;;;4.27;1.53;;;;;;;19.27;59.82;100201.75;4856532;29;20032;-77
2022/05/15 10:58:20;;;;;;;3.55;2.10;;;;;;;19.85;58.19;100199.44;4858551;29;20070;-76
2022/05/15 11:00:55;;;;;;;8.05;2.35;;;;;;;20.25;57.81;100183.53;4838318;29;20116;-76
2022/05/15 11:03:55;;;;;;;4.97;1.95;;;;;;;20.87;56.38;100177.16;4858668;29;20068;-77
2022/05/15 11:06:33;;;;;;;3.65;2.40;;;;;;;21.58;54.95;100185.56;4848797;29;20029;-75
2022/05/15 11:08:58;;;;;;;4.15;1.95;;;;;;;22.64;51.84;100194.06;4852589;29;20518;-76
2022/05/15 11:12:12;;;;;;;7.95;2.58;;;;;;;23.73;49.72;100183.81;4854023;29;20064;-77
2022/05/15 11:14:45;;;;;;;6.35;2.78;;;;;;;25.07;46.49;100207.94;4855186;29;20042;-76
2022/05/15 11:17:31;;;;;;;;;;;;;;;;;;;;;
2022/05/15 11:20:06;;;;;;;6.82;1.70;;;;;;;29.12;38.06;100206.47;4854906;29;20124;-76
2022/05/15 11:22:52;;;;;;;5.68;1.90;;;;;;;30.65;36.12;100175.00;4844696;29;20513;-77
2022/05/15 11:25:29;;;;;;;3.97;1.45;;;;;;;30.89;34.25;100192.22;4851921;29;20044;-76
2022/05/15 11:35:40;;;;;;;;;;;;;;;;;;;;;
2022/05/15 11:39:02;;;;;;;5.45;1.80;;;;;;;24.77;43.16;100149.03;4828690;29;20133;-80
2022/05/15 11:48:44;;;;;;;3.67;1.25;;;;;;;22.52;48.13;100146.75;4766344;30;20062;-83
2022/05/15 11:51:25;;;;;;;;;;;;;;;;;;;;;
2022/05/15 11:54:29;;;;;;;;;;;;;;;;;;;;;
2022/05/15 11:57:10;;;;;;;;;;;;;;;;;;;;;
2022/05/15 11:59:50;;;;;;;5.05;1.40;;;;;;;20.23;52.55;100106.13;4759589;30;20092;-78
2022/05/15 12:02:35;;;;;;;6.20;1.35;;;;;;;19.97;53.46;100145.19;4753160;30;20036;-79
2022/05/15 12:05:40;;;;;;;;;;;;;;;;;;;;;
2022/05/15 12:09:21;;;;;;;;;;;;;;;;;;;;;
2022/05/15 12:11:51;;;;;;;7.28;2.05;;;;;;;18.94;55.93;100149.66;4867733;29;20150;-78
2022/05/15 12:14:51;;;;;;;;;;;;;;;;;;;;;
2022/05/15 12:17:40;;;;;;;;;;;;;;;;;;;;;
2022/05/15 12:20:53;;;;;;;;;;;;;;;;;;;;;
2022/05/15 12:26:48;;;;;;;2.45;1.50;;;;;;;17.91;61.04;100143.78;4861116;29;20569;-79
2022/05/15 12:29:19;;;;;;;4.75;1.65;;;;;;;17.75;62.30;100144.19;4847366;29;20396;-82
2022/05/15 12:31:46;;;;;;;4.15;1.60;;;;;;;17.62;62.73;100134.91;4848077;29;20026;-78
2022/05/15 13:28:41;;;;;;;5.00;1.38;;;;;;;18.50;62.73;100112.91;4766498;30;20506;-74
2022/05/15 13:31:13;;;;;;;3.40;1.55;;;;;;;18.41;62.05;100110.13;4772496;30;20052;-74
2022/05/15 20:01:09;;;;;;;3.28;1.90;;;;;;;15.81;76.51;99793.09;6322148;22;20022;-78
2022/05/15 20:03:35;;;;;;;3.35;2.17;;;;;;;15.80;76.74;99794.22;6292142;22;20010;-79
2022/05/15 20:11:37;;;;;;;3.20;2.25;;;;;;;15.95;77.00;99787.47;6334358;22;20014;-77
2022/05/15 20:14:06;;;;;;;3.60;1.88;;;;;;;15.99;76.68;99801.44;6318335;22;20013;-77
2022/05/15 20:16:34;;;;;;;6.88;2.97;;;;;;;15.94;76.96;99801.59;6317850;22;20024;-79
2022/05/15 20:19:00;;;;;;;3.83;2.72;;;;;;;15.96;77.36;99799.31;6313823;22;20003;-78
2022/05/15 20:21:37;;;;;;;3.88;2.70;;;;;;;15.93;77.22;99805.47;6346339;22;20739;-79
2022/05/15 20:24:03;;;;;;;5.38;2.88;;;;;;;15.87;77.43;99791.81;6320817;22;20003;-78
2022/05/15 20:26:29;;;;;;;3.55;2.85;;;;;;;15.98;77.38;99808.09;6349221;22;20014;-79
2022/05/15 20:28:54;;;;;;;3.53;2.30;;;;;;;16.03;77.78;99816.22;6295451;22;20011;-82
2022/05/15 20:31:23;;;;;;;3.65;2.53;;;;;;;15.97;77.57;99823.00;6321770;22;20009;-79
2022/05/15 20:33:51;;;;;;;5.80;3.03;;;;;;;15.90;77.35;99812.41;6319909;22;20014;-81
2022/05/15 20:36:18;;;;;;;5.43;2.92;;;;;;;15.96;78.00;99837.91;6349055;22;20059;-78
2022/05/15 20:38:53;;;;;;;6.28;4.15;;;;;;;15.80;78.20;99819.03;6320579;22;20011;-80
2022/05/15 20:41:46;;;;;;;7.47;4.72;;;;;;;15.83;78.70;99829.44;6320290;22;20018;-79